createdAt,value
2022-12-27T00:01:11.425Z,2.27
2022-12-27T00:03:37.896Z,1.70
2022-12-27T00:06:15.476Z,1.90
2022-12-27T00:08:43.346Z,2.50
2022-12-27T00:11:17.633Z,2.20
2022-12-27T00:13:44.680Z,2.23
2022-12-27T00:16:14.153Z,2.33
2022-12-27T00:18:41.041Z,2.00
2022-12-27T00:21:10.442Z,2.70
2022-12-27T00:23:40.856Z,2.60
2022-12-27T00:26:18.138Z,2.40
2022-12-27T00:28:45.125Z,2.37
2022-12-27T00:31:12.840Z,2.50
2022-12-27T00:33:41.127Z,2.40
2022-12-27T00:36:11.254Z,2.77
2022-12-27T00:38:37.661Z,2.30
2022-12-27T00:41:05.076Z,2.03
2022-12-27T00:43:31.810Z,2.27
2022-12-27T00:45:58.344Z,2.40
2022-12-27T00:48:25.588Z,2.33
2022-12-27T00:51:00.748Z,2.20
2022-12-27T00:53:29.112Z,2.23
2022-12-27T00:55:55.809Z,3.50
2022-12-27T00:58:22.228Z,3.10
2022-12-27T01:00:48.895Z,2.80
2022-12-27T01:03:16.493Z,2.73
2022-12-27T01:05:44.588Z,3.40
2022-12-27T01:08:11.172Z,3.00
2022-12-27T01:10:40.556Z,2.83
2022-12-27T01:13:07.773Z,2.77
2022-12-27T01:15:34.196Z,3.30
2022-12-27T01:18:01.042Z,3.70
2022-12-27T01:20:27.915Z,3.30
2022-12-27T01:22:54.829Z,3.67
2022-12-27T01:25:21.261Z,3.47
2022-12-27T01:27:47.661Z,3.37
2022-12-27T01:30:14.102Z,4.00
2022-12-27T01:32:40.699Z,3.70
2022-12-27T01:35:07.507Z,4.10
2022-12-27T01:37:33.931Z,4.13
2022-12-27T01:40:00.330Z,4.07
2022-12-27T01:42:46.225Z,3.70
2022-12-27T01:45:18.153Z,3.40
2022-12-27T01:47:54.278Z,5.13
2022-12-27T01:50:35.810Z,3.87
2022-12-27T01:53:22.347Z,4.63
2022-12-27T01:55:53.809Z,4.50
2022-12-27T01:58:23.454Z,4.87
2022-12-27T02:00:51.152Z,4.03
2022-12-27T02:03:23.623Z,4.10
2022-12-27T02:05:51.175Z,4.07
2022-12-27T02:08:48.560Z,4.00
2022-12-27T02:11:16.377Z,4.73
2022-12-27T02:13:45.792Z,4.23
2022-12-27T02:16:17.616Z,4.77
2022-12-27T02:18:44.841Z,4.47
2022-12-27T02:21:29.290Z,3.93
2022-12-27T02:24:31.716Z,4.03
2022-12-27T02:27:17.227Z,4.17
2022-12-27T02:29:59.386Z,4.50
2022-12-27T02:32:37.601Z,4.20
2022-12-27T02:35:33.295Z,4.63
2022-12-27T02:38:09.196Z,3.90
2022-12-27T02:40:58.329Z,5.07
2022-12-27T02:43:44.958Z,4.50
2022-12-27T02:46:48.853Z,4.90
2022-12-27T02:49:47.371Z,4.60
2022-12-27T02:53:00.473Z,4.83
2022-12-27T02:55:31.556Z,4.10
2022-12-27T02:58:29.050Z,4.70
2022-12-27T03:01:27.273Z,4.17
2022-12-27T03:04:32.540Z,4.50
2022-12-27T03:07:28.604Z,4.77
2022-12-27T03:10:39.674Z,4.53
2022-12-27T03:13:33.856Z,5.20
2022-12-27T03:16:18.023Z,4.73
2022-12-27T03:18:57.197Z,4.53
2022-12-27T03:21:50.174Z,5.00
2022-12-27T03:24:39.592Z,6.07
2022-12-27T03:27:30.859Z,4.90
2022-12-27T03:30:19.275Z,5.17
2022-12-27T03:33:11.846Z,5.03
2022-12-27T03:36:15.299Z,5.20
2022-12-27T03:38:55.044Z,5.40
2022-12-27T03:41:46.107Z,5.30
2022-12-27T03:44:26.032Z,5.10
2022-12-27T03:47:00.497Z,5.80
2022-12-27T03:49:50.534Z,5.30
2022-12-27T03:52:25.963Z,5.43
2022-12-27T03:54:53.669Z,6.10
2022-12-27T03:57:23.497Z,5.57
2022-12-27T03:59:50.312Z,6.03
2022-12-27T04:02:16.845Z,6.47
2022-12-27T04:04:43.487Z,5.77
2022-12-27T04:07:13.369Z,6.87
2022-12-27T04:09:58.089Z,6.13
2022-12-27T04:12:43.535Z,6.67
2022-12-27T04:15:29.225Z,7.17
2022-12-27T04:18:14.385Z,6.63
2022-12-27T04:20:59.689Z,8.03
2022-12-27T04:23:44.860Z,7.53
2022-12-27T04:26:29.746Z,7.63
2022-12-27T04:29:14.837Z,7.40
2022-12-27T04:32:00.035Z,7.77
2022-12-27T04:34:45.223Z,8.33
2022-12-27T04:37:17.405Z,8.07
2022-12-27T04:40:05.084Z,7.97
2022-12-27T04:42:50.016Z,8.30
2022-12-27T04:45:34.915Z,7.73
2022-12-27T04:48:20.414Z,8.90
2022-12-27T04:51:05.216Z,8.43
2022-12-27T04:53:51.306Z,8.80
2022-12-27T04:56:17.709Z,9.60
2022-12-27T04:59:04.153Z,8.27
2022-12-27T05:01:49.242Z,9.80
2022-12-27T05:04:15.849Z,8.37
2022-12-27T05:06:42.351Z,8.70
2022-12-27T05:09:27.242Z,9.50
2022-12-27T05:12:19.496Z,9.00
2022-12-27T05:14:46.819Z,8.60
2022-12-27T05:17:13.409Z,8.60
2022-12-27T05:19:39.961Z,9.07
2022-12-27T05:22:25.234Z,8.47
2022-12-27T05:25:10.531Z,9.47
2022-12-27T05:27:37.116Z,8.57
2022-12-27T05:30:04.021Z,8.53
2022-12-27T05:32:30.438Z,9.00
2022-12-27T05:34:56.824Z,8.97
2022-12-27T05:37:23.247Z,8.73
2022-12-27T05:39:49.651Z,8.67
2022-12-27T05:42:16.648Z,8.17
2022-12-27T05:44:43.252Z,8.57
2022-12-27T05:47:09.953Z,8.27
2022-12-27T05:49:36.421Z,8.37
2022-12-27T05:52:02.841Z,8.20
2022-12-27T05:54:29.246Z,8.67
2022-12-27T05:56:55.620Z,8.27
2022-12-27T05:59:22.054Z,8.67
2022-12-27T06:01:48.581Z,8.27
2022-12-27T06:04:15.796Z,8.47
2022-12-27T06:06:42.403Z,8.57
2022-12-27T06:09:08.843Z,8.33
2022-12-27T06:11:35.352Z,7.90
2022-12-27T06:14:02.688Z,7.63
2022-12-27T06:16:29.300Z,7.60
2022-12-27T06:18:55.711Z,8.10
2022-12-27T06:21:22.108Z,7.97
2022-12-27T06:23:49.490Z,7.80
2022-12-27T06:26:24.724Z,7.43
2022-12-27T06:28:51.878Z,7.73
2022-12-27T06:31:20.016Z,7.53
2022-12-27T06:33:47.726Z,7.30
2022-12-27T06:36:16.653Z,7.23
2022-12-27T06:38:43.946Z,7.30
2022-12-27T06:41:12.393Z,7.03
2022-12-27T06:43:39.692Z,6.60
2022-12-27T06:46:15.221Z,8.37
2022-12-27T06:48:47.975Z,7.40
2022-12-27T06:51:16.261Z,6.73
2022-12-27T06:53:46.009Z,6.93
2022-12-27T06:56:16.794Z,6.83
2022-12-27T06:58:43.970Z,6.33
2022-12-27T07:01:13.514Z,6.73
2022-12-27T07:03:40.473Z,6.40
2022-12-27T07:06:08.765Z,7.33
2022-12-27T07:08:36.011Z,6.87
2022-12-27T07:11:06.308Z,7.10
2022-12-27T07:13:38.567Z,7.53
2022-12-27T07:16:09.412Z,7.70
2022-12-27T07:18:37.007Z,8.03
2022-12-27T07:21:07.585Z,7.00
2022-12-27T07:23:34.365Z,7.60
2022-12-27T07:26:05.547Z,7.70
2022-12-27T07:28:32.652Z,7.80
2022-12-27T07:30:59.454Z,7.87
2022-12-27T07:33:26.027Z,6.93
2022-12-27T07:36:00.227Z,8.57
2022-12-27T07:38:27.735Z,8.23
2022-12-27T07:40:54.849Z,7.23
2022-12-27T07:43:21.362Z,7.30
2022-12-27T07:45:47.912Z,7.73
2022-12-27T07:48:14.343Z,7.60
2022-12-27T07:50:41.010Z,8.23
2022-12-27T07:53:07.700Z,7.17
2022-12-27T07:55:34.163Z,7.80
2022-12-27T07:58:00.600Z,9.90
2022-12-27T08:00:29.401Z,9.63
2022-12-27T08:02:55.985Z,8.93
2022-12-27T08:05:27.419Z,7.87
2022-12-27T08:07:54.522Z,8.07
2022-12-27T08:10:20.901Z,7.33
2022-12-27T08:12:47.453Z,8.37
2022-12-27T08:15:13.905Z,8.07
2022-12-27T08:17:40.480Z,8.60
2022-12-27T08:20:07.278Z,8.67
2022-12-27T08:22:33.667Z,7.23
2022-12-27T08:25:00.084Z,8.93
2022-12-27T08:27:26.815Z,8.97
2022-12-27T08:29:53.226Z,8.37
2022-12-27T08:32:19.685Z,8.97
2022-12-27T08:34:46.113Z,8.43
2022-12-27T08:37:12.808Z,8.63
2022-12-27T08:39:39.806Z,10.17
2022-12-27T08:42:06.309Z,8.70
2022-12-27T08:44:32.712Z,9.07
2022-12-27T08:46:59.494Z,8.43
2022-12-27T08:49:26.038Z,8.27
2022-12-27T08:51:52.425Z,11.20
2022-12-27T08:54:18.840Z,9.23
2022-12-27T08:56:45.408Z,8.50
2022-12-27T08:59:11.925Z,8.00
2022-12-27T09:01:38.514Z,7.47
2022-12-27T09:04:05.016Z,8.00
2022-12-27T09:06:31.464Z,7.53
2022-12-27T09:08:59.594Z,7.80
2022-12-27T09:11:32.251Z,8.83
2022-12-27T09:14:04.996Z,8.17
2022-12-27T09:16:34.011Z,7.40
2022-12-27T09:19:00.476Z,7.10
2022-12-27T09:21:31.723Z,7.73
2022-12-27T09:23:58.375Z,7.83
2022-12-27T09:26:29.075Z,7.20
2022-12-27T09:28:56.557Z,7.57
2022-12-27T09:31:24.459Z,7.07
2022-12-27T09:33:52.233Z,7.97
2022-12-27T09:36:21.424Z,7.10
2022-12-27T09:38:49.136Z,6.83
2022-12-27T09:44:52.978Z,7.03
2022-12-27T09:47:33.019Z,7.30
2022-12-27T09:50:10.195Z,6.87
2022-12-27T09:52:45.861Z,6.70
2022-12-27T09:55:29.846Z,7.23
2022-12-27T09:58:11.392Z,6.80
2022-12-27T10:00:40.026Z,7.07
2022-12-27T10:03:12.952Z,7.30
2022-12-27T10:05:43.926Z,6.83
2022-12-27T10:08:49.190Z,7.30
2022-12-27T10:11:37.182Z,6.93
2022-12-27T10:14:42.511Z,7.37
2022-12-27T10:17:27.414Z,6.87
2022-12-27T10:20:11.901Z,6.97
2022-12-27T10:22:47.183Z,7.23
2022-12-27T10:25:17.531Z,7.33
2022-12-27T10:27:46.687Z,9.30
2022-12-27T10:30:19.853Z,7.77
2022-12-27T10:32:47.633Z,8.80
2022-12-27T10:35:17.154Z,6.47
2022-12-27T10:37:45.494Z,5.83
2022-12-27T10:40:19.620Z,4.07
2022-12-27T10:42:58.233Z,3.90
2022-12-27T10:45:39.340Z,3.10
2022-12-27T10:48:22.372Z,2.67
2022-12-27T10:50:51.234Z,2.90
2022-12-27T10:53:34.372Z,4.53
2022-12-27T10:56:24.779Z,6.20
2022-12-27T10:58:58.806Z,4.67
2022-12-27T11:01:32.400Z,4.70
2022-12-27T11:04:26.038Z,6.00
2022-12-27T11:06:59.805Z,5.40
2022-12-27T11:09:28.043Z,5.40
2022-12-27T11:12:16.236Z,5.57
2022-12-27T11:15:04.754Z,5.47
2022-12-27T11:17:43.702Z,6.17
2022-12-27T11:20:12.076Z,5.47
2022-12-27T11:22:51.054Z,6.13
2022-12-27T11:25:18.001Z,7.07
2022-12-27T11:27:48.048Z,6.57
2022-12-27T11:30:33.618Z,6.63
2022-12-27T11:33:24.541Z,6.83
2022-12-27T11:35:54.301Z,6.63
2022-12-27T11:38:27.916Z,6.50
2022-12-27T11:41:03.909Z,6.73
2022-12-27T11:43:40.342Z,7.33
2022-12-27T11:46:30.463Z,7.97
2022-12-27T11:49:02.668Z,7.80
2022-12-27T11:51:48.148Z,7.43
2022-12-27T11:54:40.627Z,7.80
2022-12-27T11:57:45.535Z,8.10
2022-12-27T12:00:18.624Z,7.30
2022-12-27T12:03:37.064Z,8.77
2022-12-27T12:06:50.398Z,6.43
2022-12-27T12:09:32.457Z,6.53
2022-12-27T12:12:11.728Z,6.27
2022-12-27T12:14:56.760Z,6.40
2022-12-27T12:17:43.655Z,6.27
2022-12-27T12:20:25.481Z,6.67
2022-12-27T12:23:19.473Z,6.53
2022-12-27T12:26:21.227Z,6.70
2022-12-27T12:29:02.691Z,6.57
2022-12-27T12:31:53.126Z,6.03
2022-12-27T12:34:34.614Z,6.30
2022-12-27T12:37:14.613Z,7.67
2022-12-27T12:40:12.959Z,6.13
2022-12-27T12:42:54.310Z,5.50
2022-12-27T12:45:43.065Z,5.03
2022-12-27T12:48:20.407Z,5.80
2022-12-27T12:50:50.479Z,5.43
2022-12-27T12:53:48.956Z,6.23
2022-12-27T12:56:41.885Z,5.07
2022-12-27T13:00:06.830Z,5.27
2022-12-27T13:03:09.967Z,5.07
2022-12-27T13:06:04.456Z,6.13
2022-12-27T13:08:35.532Z,5.63
2022-12-27T13:11:18.779Z,6.43
2022-12-27T13:14:14.178Z,5.37
2022-12-27T13:16:52.630Z,5.60
2022-12-27T13:19:43.873Z,5.43
2022-12-27T13:22:43.880Z,5.37
2022-12-27T13:25:12.989Z,5.10
2022-12-27T13:27:49.595Z,6.10
2022-12-27T13:30:33.833Z,6.07
2022-12-27T13:33:06.003Z,5.53
2022-12-27T13:35:43.327Z,5.40
2022-12-27T13:38:15.918Z,5.70
2022-12-27T13:41:10.841Z,5.83
2022-12-27T13:43:48.880Z,5.50
2022-12-27T13:46:43.332Z,5.83
2022-12-27T13:49:37.010Z,5.50
2022-12-27T13:52:21.738Z,5.93
2022-12-27T13:55:02.568Z,5.53
2022-12-27T13:57:53.773Z,5.30
2022-12-27T14:00:22.136Z,6.17
2022-12-27T14:03:00.713Z,6.13
2022-12-27T14:05:55.430Z,6.07
2022-12-27T14:08:33.922Z,6.00
2022-12-27T14:11:01.952Z,6.57
2022-12-27T14:13:34.125Z,7.33
2022-12-27T14:16:20.240Z,6.50
2022-12-27T14:19:16.003Z,8.00
2022-12-27T14:21:45.719Z,7.30
2022-12-27T14:24:45.952Z,6.77
2022-12-27T14:27:33.550Z,7.40
2022-12-27T14:30:21.950Z,7.57
2022-12-27T14:33:16.319Z,6.83
2022-12-27T14:36:10.904Z,6.50
2022-12-27T14:38:57.347Z,6.27
2022-12-27T14:41:23.687Z,7.13
2022-12-27T14:44:29.718Z,6.87
2022-12-27T14:47:11.591Z,6.23
2022-12-27T14:49:57.003Z,6.77
2022-12-27T14:52:35.716Z,5.50
2022-12-27T14:55:27.333Z,5.57
2022-12-27T14:57:59.511Z,8.90
2022-12-27T15:00:29.860Z,6.00
2022-12-27T15:03:02.929Z,6.47
2022-12-27T15:05:39.467Z,6.00
2022-12-27T15:08:27.236Z,5.90
2022-12-27T15:11:18.936Z,7.50
2022-12-27T15:14:01.009Z,5.57
2022-12-27T15:16:45.797Z,6.07
2022-12-27T15:19:37.870Z,6.10
2022-12-27T15:22:27.057Z,5.93
2022-12-27T15:25:03.896Z,6.50
2022-12-27T15:27:35.331Z,6.67
2022-12-27T15:30:16.765Z,7.20
2022-12-27T15:33:05.388Z,7.63
2022-12-27T15:35:54.197Z,7.53
2022-12-27T15:38:54.153Z,7.67
2022-12-27T15:41:35.487Z,7.73
2022-12-27T15:44:12.945Z,9.70
2022-12-27T15:47:10.381Z,10.00
2022-12-27T15:50:17.752Z,11.00
2022-12-27T15:53:03.249Z,11.53
2022-12-27T15:55:55.348Z,20.33
2022-12-27T15:58:23.456Z,20.27
2022-12-27T16:01:20.478Z,17.57
2022-12-27T16:03:50.967Z,14.73
2022-12-27T16:06:35.643Z,13.47
2022-12-27T16:09:20.986Z,12.17
2022-12-27T16:12:35.334Z,12.43
2022-12-27T16:15:51.837Z,13.07
2022-12-27T16:18:21.351Z,13.27
2022-12-27T16:21:09.441Z,14.50
2022-12-27T16:23:37.394Z,14.07
2022-12-27T16:26:17.313Z,13.33
2022-12-27T16:28:54.255Z,16.37
2022-12-27T16:31:24.800Z,17.73
2022-12-27T16:33:53.545Z,14.93
2022-12-27T16:36:29.948Z,14.83
2022-12-27T16:39:11.865Z,13.73
2022-12-27T16:41:56.864Z,13.20
2022-12-27T16:44:26.292Z,13.97
2022-12-27T16:47:14.460Z,13.83
2022-12-27T16:50:28.504Z,14.27
2022-12-27T16:53:16.803Z,13.27
2022-12-27T16:56:22.552Z,13.80
2022-12-27T16:58:49.262Z,14.10
2022-12-27T17:01:18.725Z,15.73
2022-12-27T17:03:48.220Z,15.37
2022-12-27T17:09:10.035Z,15.27
2022-12-27T17:12:11.967Z,13.47
2022-12-27T17:14:42.052Z,12.87
2022-12-27T17:17:23.054Z,12.30
2022-12-27T17:19:55.883Z,12.40
2022-12-27T17:22:27.391Z,11.77
2022-12-27T17:24:59.162Z,11.40
2022-12-27T17:27:40.914Z,10.13
2022-12-27T17:30:19.905Z,8.27
2022-12-27T17:33:09.640Z,7.63
2022-12-27T17:35:47.689Z,7.63
2022-12-27T17:38:41.127Z,7.20
2022-12-27T17:41:47.350Z,7.80
2022-12-27T17:44:58.942Z,7.07
2022-12-27T17:47:37.077Z,7.00
2022-12-27T17:50:12.294Z,7.47
2022-12-27T17:52:57.523Z,7.90
2022-12-27T17:55:45.829Z,11.57
2022-12-27T17:58:16.051Z,9.37
2022-12-27T18:00:56.549Z,10.40
2022-12-27T18:03:26.390Z,8.83
2022-12-27T18:05:52.950Z,7.30
2022-12-27T18:08:25.128Z,7.03
2022-12-27T18:10:51.917Z,7.43
2022-12-27T18:13:20.537Z,7.07
2022-12-27T18:15:49.786Z,7.17
2022-12-27T18:18:20.887Z,7.13
2022-12-27T18:20:54.754Z,7.60
2022-12-27T18:23:21.264Z,6.57
2022-12-27T18:25:47.582Z,7.20
2022-12-27T18:28:33.074Z,7.30
2022-12-27T18:31:32.514Z,7.80
2022-12-27T18:34:20.234Z,8.93
2022-12-27T18:36:58.971Z,7.60
2022-12-27T18:39:34.787Z,6.83
2022-12-27T18:42:18.447Z,6.43
2022-12-27T18:44:56.909Z,5.67
2022-12-27T18:47:27.323Z,4.87
2022-12-27T18:50:00.762Z,5.83
2022-12-27T18:52:34.996Z,5.53
2022-12-27T18:55:12.415Z,5.07
2022-12-27T18:57:39.464Z,5.40
2022-12-27T19:00:14.988Z,6.37
2022-12-27T19:02:42.125Z,4.30
2022-12-27T19:05:20.603Z,9.20
2022-12-27T19:07:49.785Z,4.97
2022-12-27T19:10:19.694Z,5.60
2022-12-27T19:12:46.866Z,3.77
2022-12-27T19:15:18.423Z,4.70
2022-12-27T19:17:47.901Z,5.67
2022-12-27T19:20:39.987Z,5.90
2022-12-27T19:23:49.131Z,5.63
2022-12-27T19:26:15.602Z,5.40
2022-12-27T19:28:44.190Z,4.80
2022-12-27T19:31:21.759Z,4.50
2022-12-27T19:33:53.126Z,4.00
2022-12-27T19:36:44.137Z,3.40
2022-12-27T19:39:21.771Z,5.50
2022-12-27T19:41:49.510Z,4.23
2022-12-27T19:44:16.538Z,3.37
2022-12-27T19:46:43.419Z,5.60
2022-12-27T19:51:57.747Z,3.33
2022-12-27T19:54:27.285Z,3.00
2022-12-27T19:56:54.946Z,2.70
2022-12-27T19:59:24.008Z,3.20
2022-12-27T20:01:52.078Z,5.30
2022-12-27T20:04:18.873Z,3.13
2022-12-27T20:06:47.877Z,3.23
2022-12-27T20:09:19.615Z,2.77
2022-12-27T20:11:48.311Z,3.57
2022-12-27T20:14:17.332Z,2.43
2022-12-27T20:16:45.551Z,2.70
2022-12-27T20:19:15.974Z,2.70
2022-12-27T20:21:42.484Z,2.53
2022-12-27T20:24:11.068Z,2.53
2022-12-27T20:26:38.573Z,2.23
2022-12-27T20:29:05.235Z,2.30
2022-12-27T20:31:32.335Z,2.93
2022-12-27T20:33:59.276Z,2.63
2022-12-27T20:36:26.144Z,2.40
2022-12-27T20:38:52.702Z,2.30
2022-12-27T20:41:21.061Z,2.20
2022-12-27T20:43:53.026Z,2.20
2022-12-27T20:46:19.508Z,2.40
2022-12-27T20:48:46.945Z,2.40
2022-12-27T20:51:19.847Z,2.50
2022-12-27T20:53:49.027Z,3.00
2022-12-27T20:56:16.260Z,2.20
2022-12-27T20:58:43.155Z,2.43
2022-12-27T21:01:13.558Z,2.03
2022-12-27T21:03:40.784Z,2.60
2022-12-27T21:06:13.892Z,2.97
2022-12-27T21:08:46.511Z,2.53
2022-12-27T21:11:24.149Z,2.47
2022-12-27T21:13:50.627Z,2.43
2022-12-27T21:16:23.224Z,2.30
2022-12-27T21:18:50.165Z,2.00
2022-12-27T21:21:19.873Z,2.27
2022-12-27T21:23:47.443Z,2.93
2022-12-27T21:26:17.316Z,2.43
2022-12-27T21:28:45.545Z,2.10
2022-12-27T21:31:13.424Z,2.47
2022-12-27T21:33:40.336Z,2.20
2022-12-27T21:36:11.017Z,2.57
2022-12-27T21:38:37.572Z,2.57
2022-12-27T21:41:16.682Z,2.60
2022-12-27T21:43:44.334Z,2.30
2022-12-27T21:46:20.578Z,2.30
2022-12-27T21:48:48.745Z,2.30
2022-12-27T21:51:19.819Z,2.43
2022-12-27T21:53:46.957Z,2.50
2022-12-27T21:56:15.510Z,2.17
2022-12-27T21:58:43.706Z,2.40
2022-12-27T22:01:17.357Z,2.10
2022-12-27T22:03:46.286Z,2.50
2022-12-27T22:06:19.157Z,2.70
2022-12-27T22:08:49.041Z,2.37
2022-12-27T22:11:16.260Z,2.50
2022-12-27T22:13:43.976Z,1.90
2022-12-27T22:16:17.480Z,1.80
2022-12-27T22:18:45.191Z,2.23
2022-12-27T22:21:18.027Z,2.17
2022-12-27T22:23:47.203Z,1.80
2022-12-27T22:26:16.551Z,1.60
2022-12-27T22:28:43.428Z,1.80
2022-12-27T22:31:18.245Z,2.20
2022-12-27T22:33:45.197Z,2.00
2022-12-27T22:36:18.229Z,2.30
2022-12-27T22:38:49.429Z,2.00
2022-12-27T22:41:22.322Z,1.80
2022-12-27T22:43:51.292Z,1.93
2022-12-27T22:46:18.112Z,1.80
2022-12-27T22:48:49.455Z,1.80
2022-12-27T22:51:18.593Z,2.40
2022-12-27T22:53:45.290Z,12.10
2022-12-27T22:56:22.898Z,7.23
2022-12-27T22:58:49.618Z,2.37
2022-12-27T23:01:22.113Z,2.20
2022-12-27T23:03:49.295Z,2.37
2022-12-27T23:06:16.790Z,2.60
2022-12-27T23:08:44.610Z,2.67
2022-12-27T23:11:22.506Z,1.83
2022-12-27T23:13:54.672Z,2.50
2022-12-27T23:16:21.189Z,2.10
2022-12-27T23:18:47.738Z,1.77
2022-12-27T23:21:20.537Z,1.70
2022-12-27T23:23:50.606Z,1.67
2022-12-27T23:26:19.974Z,1.80
2022-12-27T23:28:47.787Z,1.73
2022-12-27T23:31:14.948Z,1.77
2022-12-27T23:33:43.231Z,2.47
2022-12-27T23:36:11.308Z,2.33
2022-12-27T23:38:37.998Z,2.80
2022-12-27T23:41:06.608Z,2.77
2022-12-27T23:43:53.790Z,2.00
2022-12-27T23:46:30.233Z,1.87
2022-12-27T23:48:58.285Z,1.80
2022-12-27T23:51:25.247Z,2.73
2022-12-27T23:53:52.388Z,1.90
2022-12-27T23:56:22.205Z,1.60
2022-12-27T23:58:50.428Z,1.93
